createdAt,value
2018-04-10T00:01:05.536Z,11.00
2018-04-10T00:03:32.526Z,11.80
2018-04-10T00:05:59.550Z,12.20
2018-04-10T00:08:26.535Z,10.70
2018-04-10T00:10:53.542Z,10.90
2018-04-10T00:13:20.569Z,11.00
2018-04-10T00:15:47.560Z,10.70
2018-04-10T00:20:56.016Z,12.20
2018-04-10T00:23:23.000Z,10.50
2018-04-10T00:25:49.980Z,9.70
2018-04-10T00:28:17.012Z,9.60
2018-04-10T00:30:43.989Z,9.80
2018-04-10T00:33:10.974Z,10.00
2018-04-10T00:35:37.981Z,9.90
2018-04-10T00:38:04.976Z,9.60
2018-04-10T00:40:31.973Z,9.80
2018-04-10T00:42:58.989Z,9.80
2018-04-10T00:45:27.206Z,9.60
2018-04-10T00:47:54.189Z,9.70
2018-04-10T00:50:21.218Z,9.70
2018-04-10T00:55:15.601Z,9.80
2018-04-10T00:57:43.463Z,9.80
2018-04-10T01:00:10.445Z,9.30
2018-04-10T01:02:37.439Z,9.00
2018-04-10T01:05:04.459Z,9.20
2018-04-10T01:07:31.442Z,9.00
2018-04-10T01:09:58.436Z,9.00
2018-04-10T01:12:25.457Z,9.00
2018-04-10T01:14:52.441Z,8.90
2018-04-10T01:17:19.438Z,8.90
2018-04-10T01:19:46.462Z,8.40
2018-04-10T01:22:13.453Z,8.60
2018-04-10T01:24:41.292Z,8.60
2018-04-10T01:27:08.333Z,8.60
2018-04-10T01:29:35.322Z,8.70
2018-04-10T01:32:02.327Z,8.80
2018-04-10T01:34:29.356Z,9.00
2018-04-10T01:36:56.351Z,9.10
2018-04-10T01:42:01.861Z,9.00
2018-04-10T01:44:28.856Z,8.50
2018-04-10T01:46:55.905Z,8.70
2018-04-10T01:49:24.399Z,8.70
2018-04-10T01:51:51.387Z,8.30
2018-04-10T01:56:58.214Z,8.20
2018-04-10T01:59:25.202Z,8.10
2018-04-10T02:01:52.181Z,8.20
2018-04-10T02:06:47.129Z,8.50
2018-04-10T02:09:14.455Z,8.70
2018-04-10T02:11:41.472Z,8.60
2018-04-10T02:14:08.449Z,8.50
2018-04-10T02:16:35.438Z,8.60
2018-04-10T02:19:02.478Z,8.60
2018-04-10T02:21:29.478Z,8.50
2018-04-10T02:23:56.466Z,8.40
2018-04-10T02:26:25.119Z,8.50
2018-04-10T02:28:52.973Z,8.50
2018-04-10T02:33:47.063Z,8.40
2018-04-10T02:36:14.042Z,8.40
2018-04-10T02:38:41.348Z,8.40
2018-04-10T02:41:08.386Z,8.50
2018-04-10T02:43:35.368Z,8.50
2018-04-10T02:46:02.367Z,8.60
2018-04-10T02:48:29.379Z,8.70
2018-04-10T02:50:56.372Z,8.80
2018-04-10T02:53:23.353Z,8.90
2018-04-10T02:55:50.375Z,8.90
2018-04-10T03:00:44.451Z,8.40
2018-04-10T03:03:11.471Z,8.30
2018-04-10T03:05:38.481Z,8.30
2018-04-10T03:08:05.466Z,8.20
2018-04-10T03:10:32.484Z,8.30
2018-04-10T03:12:59.474Z,8.20
2018-04-10T03:15:26.458Z,8.30
2018-04-10T03:17:53.485Z,8.30
2018-04-10T03:25:28.044Z,8.30
2018-04-10T03:27:57.838Z,8.50
2018-04-10T03:30:24.820Z,8.60
2018-04-10T03:32:51.834Z,8.70
2018-04-10T03:35:18.819Z,8.90
2018-04-10T03:37:45.825Z,9.00
2018-04-10T03:40:12.850Z,9.10
2018-04-10T03:42:39.829Z,9.10
2018-04-10T03:45:06.818Z,8.50
2018-04-10T03:47:33.836Z,8.30
2018-04-10T03:50:00.815Z,8.40
2018-04-10T03:52:27.803Z,8.40
2018-04-10T03:54:54.829Z,8.40
2018-04-10T03:57:21.814Z,8.10
2018-04-10T03:59:49.216Z,8.10
2018-04-10T04:02:16.224Z,8.50
2018-04-10T04:04:43.209Z,8.00
2018-04-10T04:07:10.188Z,8.00
2018-04-10T04:09:37.205Z,7.90
2018-04-10T04:12:04.193Z,8.00
2018-04-10T04:14:33.376Z,8.10
2018-04-10T04:17:12.197Z,8.20
2018-04-10T04:19:50.971Z,8.40
2018-04-10T04:25:07.742Z,8.70
2018-04-10T04:27:34.766Z,8.80
2018-04-10T04:30:02.572Z,8.80
2018-04-10T04:32:29.556Z,8.70
2018-04-10T04:34:57.818Z,8.90
2018-04-10T04:37:24.808Z,8.80
2018-04-10T04:39:52.117Z,8.70
2018-04-10T04:42:19.171Z,8.90
2018-04-10T04:44:46.535Z,8.90
2018-04-10T04:47:13.882Z,9.10
2018-04-10T04:49:40.921Z,8.50
2018-04-10T04:52:08.406Z,8.10
2018-04-10T04:57:02.523Z,8.20
2018-04-10T04:59:29.510Z,8.30
2018-04-10T05:01:57.250Z,7.70
2018-04-10T05:04:24.264Z,7.40
2018-04-10T05:06:51.578Z,7.60
2018-04-10T05:09:18.590Z,7.40
2018-04-10T05:11:45.610Z,7.70
2018-04-10T05:14:12.593Z,7.80
2018-04-10T05:16:39.576Z,8.80
2018-04-10T05:21:34.214Z,8.50
2018-04-10T05:26:28.292Z,8.10
2018-04-10T05:28:55.268Z,8.30
2018-04-10T05:31:22.248Z,8.50
2018-04-10T05:33:49.266Z,8.10
2018-04-10T05:36:16.262Z,8.60
2018-04-10T05:38:43.577Z,9.00
2018-04-10T05:41:10.681Z,9.00
2018-04-10T05:43:37.611Z,8.90
2018-04-10T05:48:43.166Z,10.00
2018-04-10T05:51:10.145Z,10.70
2018-04-10T05:53:37.118Z,9.70
2018-04-10T05:56:04.137Z,10.50
2018-04-10T05:58:32.013Z,11.20
2018-04-10T06:00:59.003Z,11.60
2018-04-10T06:05:53.107Z,12.20
2018-04-10T06:08:24.558Z,12.50
2018-04-10T06:10:51.588Z,12.70
2018-04-10T06:13:21.672Z,12.90
2018-04-10T06:15:48.680Z,13.10
2018-04-10T06:20:42.739Z,11.90
2018-04-10T06:23:09.733Z,12.00
2018-04-10T06:25:37.582Z,12.20
2018-04-10T06:28:04.922Z,12.10
2018-04-10T06:30:31.911Z,10.90
2018-04-10T06:32:58.944Z,10.30
2018-04-10T06:35:25.951Z,10.60
2018-04-10T06:37:52.955Z,10.40
2018-04-10T06:40:19.997Z,10.60
2018-04-10T06:42:47.801Z,10.50
2018-04-10T06:45:14.718Z,10.30
2018-04-10T06:47:42.626Z,10.80
2018-04-10T06:50:09.559Z,11.00
2018-04-10T06:52:36.563Z,10.90
2018-04-10T06:55:03.603Z,11.10
2018-04-10T06:57:30.620Z,11.10
2018-04-10T06:59:57.780Z,11.40
2018-04-10T07:07:30.863Z,11.30
2018-04-10T07:09:57.852Z,11.10
2018-04-10T07:12:24.841Z,11.00
2018-04-10T07:14:51.890Z,11.30
2018-04-10T07:19:45.981Z,11.70
2018-04-10T07:22:13.009Z,12.10
2018-04-10T07:24:40.006Z,11.90
2018-04-10T07:27:07.476Z,12.00
2018-04-10T07:29:34.511Z,12.10
2018-04-10T07:32:01.523Z,12.10
2018-04-10T07:34:28.519Z,12.20
2018-04-10T07:36:55.545Z,12.40
2018-04-10T07:39:22.543Z,12.50
2018-04-10T07:41:49.559Z,12.60
2018-04-10T07:44:16.592Z,12.40
2018-04-10T07:46:43.591Z,12.60
2018-04-10T07:51:37.714Z,12.60
2018-04-10T07:54:04.718Z,12.50
2018-04-10T07:56:31.732Z,13.00
2018-04-10T07:58:58.770Z,12.80
2018-04-10T08:01:25.768Z,13.00
2018-04-10T08:03:52.764Z,13.40
2018-04-10T08:06:19.847Z,13.20
2018-04-10T08:08:46.787Z,13.60
2018-04-10T08:11:14.142Z,13.90
2018-04-10T08:13:44.325Z,14.20
2018-04-10T08:16:11.343Z,14.30
2018-04-10T08:18:38.351Z,14.60
2018-04-10T08:21:05.382Z,14.60
2018-04-10T08:23:32.367Z,14.30
2018-04-10T08:25:59.380Z,14.60
2018-04-10T08:31:04.920Z,14.60
2018-04-10T08:33:33.142Z,15.00
2018-04-10T08:36:00.467Z,15.30
2018-04-10T08:38:28.354Z,15.20
2018-04-10T08:40:55.393Z,15.80
2018-04-10T08:43:22.412Z,15.80
2018-04-10T08:45:49.415Z,15.60
2018-04-10T08:48:16.460Z,16.20
2018-04-10T08:53:21.619Z,16.40
2018-04-10T08:55:48.644Z,16.30
2018-04-10T08:58:15.661Z,16.20
2018-04-10T09:00:42.733Z,16.20
2018-04-10T09:05:48.330Z,16.50
2018-04-10T09:10:46.488Z,17.00
2018-04-10T09:13:13.542Z,16.90
2018-04-10T09:15:41.531Z,17.20
2018-04-10T09:18:08.552Z,16.80
2018-04-10T09:20:35.595Z,16.90
2018-04-10T09:23:02.583Z,17.10
2018-04-10T09:25:29.596Z,17.20
2018-04-10T09:27:57.594Z,16.80
2018-04-10T09:30:24.627Z,16.80
2018-04-10T09:32:51.644Z,16.50
2018-04-10T09:35:18.691Z,16.60
2018-04-10T09:37:45.707Z,16.90
2018-04-10T09:40:12.707Z,17.00
2018-04-10T09:45:19.493Z,17.20
2018-04-10T09:47:46.792Z,16.80
2018-04-10T09:50:13.809Z,17.00
2018-04-10T09:52:41.800Z,17.30
2018-04-10T09:55:11.406Z,16.90
2018-04-10T09:57:38.425Z,17.00
2018-04-10T10:00:05.440Z,17.80
2018-04-10T10:02:32.487Z,17.20
2018-04-10T10:04:59.495Z,17.40
2018-04-10T10:07:26.527Z,16.90
2018-04-10T10:09:53.579Z,17.10
2018-04-10T10:12:20.590Z,16.70
2018-04-10T10:14:48.604Z,16.90
2018-04-10T10:17:15.681Z,17.30
2018-04-10T10:19:42.708Z,17.20
2018-04-10T10:22:09.736Z,17.30
2018-04-10T10:24:36.765Z,17.40
2018-04-10T10:27:04.017Z,17.70
2018-04-10T10:29:31.032Z,18.00
2018-04-10T10:31:58.076Z,17.70
2018-04-10T10:34:26.067Z,17.90
2018-04-10T10:36:53.077Z,18.10
2018-04-10T10:39:20.124Z,17.60
2018-04-10T10:41:47.134Z,18.30
2018-04-10T10:44:14.153Z,17.90
2018-04-10T10:46:41.189Z,17.20
2018-04-10T10:49:08.211Z,17.80
2018-04-10T10:51:35.230Z,17.50
2018-04-10T10:54:03.038Z,17.70
2018-04-10T10:56:30.069Z,17.40
2018-04-10T10:58:57.096Z,17.60
2018-04-10T11:01:24.148Z,18.30
2018-04-10T11:03:51.166Z,18.30
2018-04-10T11:08:58.703Z,18.30
2018-04-10T11:11:25.723Z,18.20
2018-04-10T11:16:19.876Z,18.40
2018-04-10T11:18:47.808Z,18.50
2018-04-10T11:21:15.145Z,18.30
2018-04-10T11:23:42.194Z,17.60
2018-04-10T11:26:09.207Z,17.80
2018-04-10T11:28:36.224Z,18.20
2018-04-10T11:31:03.262Z,17.80
2018-04-10T11:33:31.643Z,18.00
2018-04-10T11:35:58.645Z,18.30
2018-04-10T11:38:25.717Z,18.10
2018-04-10T11:40:52.724Z,18.20
2018-04-10T11:43:19.753Z,17.80
2018-04-10T11:45:47.741Z,18.20
2018-04-10T11:48:14.752Z,18.60
2018-04-10T11:50:41.785Z,18.40
2018-04-10T11:53:08.833Z,17.80
2018-04-10T11:55:35.853Z,17.80
2018-04-10T11:58:02.847Z,17.90
2018-04-10T12:00:29.894Z,18.10
2018-04-10T12:02:56.916Z,17.70
2018-04-10T12:05:23.973Z,17.90
2018-04-10T12:07:51.025Z,18.20
2018-04-10T12:10:18.351Z,18.60
2018-04-10T12:12:45.359Z,18.50
2018-04-10T12:17:39.531Z,19.00
2018-04-10T12:20:06.552Z,18.80
2018-04-10T12:22:33.609Z,18.40
2018-04-10T12:25:00.655Z,18.30
2018-04-10T12:27:27.655Z,18.30
2018-04-10T12:29:54.709Z,18.10
2018-04-10T12:35:00.243Z,17.80
2018-04-10T12:37:28.143Z,18.10
2018-04-10T12:39:58.447Z,17.70
2018-04-10T12:42:25.493Z,17.80
2018-04-10T12:44:52.527Z,17.90
2018-04-10T12:47:19.601Z,17.90
2018-04-10T12:49:46.646Z,18.10
2018-04-10T12:52:17.179Z,18.00
2018-04-10T12:54:44.226Z,18.20
2018-04-10T12:57:12.274Z,17.90
2018-04-10T12:59:39.326Z,18.60
2018-04-10T13:02:06.415Z,18.80
2018-04-10T13:04:34.298Z,18.60
2018-04-10T13:07:01.329Z,18.50
2018-04-10T13:09:32.569Z,18.20
2018-04-10T13:12:00.725Z,18.20
2018-04-10T13:14:30.743Z,18.20
2018-04-10T13:16:58.653Z,18.50
2018-04-10T13:19:25.715Z,18.40
2018-04-10T13:21:53.203Z,18.30
2018-04-10T13:24:20.270Z,18.00
2018-04-10T13:26:48.235Z,18.10
2018-04-10T13:29:15.546Z,17.80
2018-04-10T13:31:42.917Z,17.70
2018-04-10T13:34:10.777Z,17.60
2018-04-10T13:36:37.815Z,17.60
2018-04-10T13:41:43.415Z,17.90
2018-04-10T13:44:12.630Z,17.90
2018-04-10T13:46:39.691Z,17.80
2018-04-10T13:49:06.742Z,17.90
2018-04-10T13:51:33.787Z,17.90
2018-04-10T13:54:00.809Z,17.60
2018-04-10T13:56:28.324Z,17.60
2018-04-10T13:58:55.378Z,17.80
2018-04-10T14:01:23.570Z,17.50
2018-04-10T14:03:50.642Z,17.50
2018-04-10T14:06:18.541Z,17.50
2018-04-10T14:08:45.575Z,17.60
2018-04-10T14:13:39.768Z,17.50
2018-04-10T14:16:07.139Z,17.90
2018-04-10T14:18:34.222Z,17.80
2018-04-10T14:21:03.997Z,17.40
2018-04-10T14:23:28.275Z,17.40
2018-04-10T14:25:55.376Z,17.30
2018-04-10T14:28:22.441Z,17.20
2018-04-10T14:30:49.486Z,17.30
2018-04-10T14:33:16.537Z,17.20
2018-04-10T14:35:43.562Z,17.40
2018-04-10T14:38:11.449Z,17.30
2018-04-10T14:40:39.026Z,17.50
2018-04-10T14:43:06.070Z,17.50
2018-04-10T14:45:33.118Z,17.30
2018-04-10T14:50:27.309Z,17.20
2018-04-10T14:52:55.213Z,17.10
2018-04-10T14:55:22.286Z,17.30
2018-04-10T14:57:49.309Z,17.00
2018-04-10T15:02:52.767Z,17.30
2018-04-10T15:05:19.792Z,17.20
2018-04-10T15:07:46.822Z,17.10
2018-04-10T15:10:13.884Z,17.20
2018-04-10T15:12:41.703Z,17.50
2018-04-10T15:15:08.743Z,17.70
2018-04-10T15:17:35.818Z,17.80
2018-04-10T15:20:02.838Z,17.70
2018-04-10T15:22:30.802Z,17.70
2018-04-10T15:24:57.915Z,17.70
2018-04-10T15:27:24.886Z,17.50
2018-04-10T15:29:51.897Z,17.80
2018-04-10T15:32:18.968Z,17.60
2018-04-10T15:34:45.990Z,17.80
2018-04-10T15:37:13.039Z,17.80
2018-04-10T15:39:40.113Z,17.90
2018-04-10T15:42:07.386Z,17.60
2018-04-10T15:44:34.419Z,17.60
2018-04-10T15:47:01.550Z,17.70
2018-04-10T15:49:32.331Z,17.80
2018-04-10T15:51:59.588Z,17.40
2018-04-10T15:54:26.668Z,17.20
2018-04-10T15:56:53.690Z,16.90
2018-04-10T15:59:20.729Z,17.00
2018-04-10T16:01:48.732Z,17.10
2018-04-10T16:04:15.916Z,17.30
2018-04-10T16:06:42.966Z,17.30
2018-04-10T16:09:10.019Z,17.30
2018-04-10T16:11:37.073Z,17.40
2018-04-10T16:14:04.071Z,17.50
2018-04-10T16:16:31.358Z,16.90
2018-04-10T16:21:26.022Z,16.70
2018-04-10T16:26:32.708Z,16.70
2018-04-10T16:29:00.027Z,16.80
2018-04-10T16:31:27.100Z,16.50
2018-04-10T16:33:54.196Z,16.50
2018-04-10T16:36:22.655Z,16.30
2018-04-10T16:38:51.866Z,16.40
2018-04-10T16:41:18.893Z,16.30
2018-04-10T16:46:13.355Z,16.60
2018-04-10T16:48:40.593Z,16.30
2018-04-10T16:51:07.972Z,16.20
2018-04-10T16:53:37.187Z,16.20
2018-04-10T16:56:04.188Z,16.30
2018-04-10T16:58:31.532Z,16.20
2018-04-10T17:01:04.688Z,16.30
2018-04-10T17:03:32.564Z,16.50
2018-04-10T17:05:59.679Z,16.60
2018-04-10T17:08:27.830Z,16.50
2018-04-10T17:10:57.224Z,16.50
2018-04-10T17:16:04.150Z,16.20
2018-04-10T17:18:34.410Z,16.20
2018-04-10T17:21:01.532Z,16.30
2018-04-10T17:23:28.633Z,16.10
2018-04-10T17:25:55.741Z,16.10
2018-04-10T17:28:22.807Z,16.10
2018-04-10T17:30:49.938Z,15.90
2018-04-10T17:33:34.738Z,16.00
2018-04-10T17:35:45.320Z,15.70
2018-04-10T17:38:12.395Z,15.70
2018-04-10T17:40:39.414Z,15.80
2018-04-10T17:43:07.386Z,15.70
2018-04-10T17:48:14.197Z,15.60
2018-04-10T17:50:41.250Z,15.60
2018-04-10T17:53:08.220Z,15.40
2018-04-10T17:55:35.204Z,15.30
2018-04-10T17:58:03.169Z,15.40
2018-04-10T18:00:30.277Z,15.20
2018-04-10T18:02:57.253Z,15.30
2018-04-10T18:05:24.261Z,15.20
2018-04-10T18:07:51.453Z,15.10
2018-04-10T18:10:18.517Z,15.10
2018-04-10T18:12:47.285Z,15.00
2018-04-10T18:15:14.207Z,15.10
2018-04-10T18:17:41.639Z,15.30
2018-04-10T18:20:08.550Z,15.30
2018-04-10T18:22:35.521Z,15.30
2018-04-10T18:25:02.530Z,15.20
2018-04-10T18:27:29.588Z,15.30
2018-04-10T18:32:23.653Z,15.20
2018-04-10T18:34:50.687Z,15.20
2018-04-10T18:37:17.667Z,15.10
2018-04-10T18:39:44.645Z,15.20
2018-04-10T18:42:11.673Z,15.20
2018-04-10T18:44:38.687Z,15.30
2018-04-10T18:49:33.742Z,15.40
2018-04-10T18:52:00.731Z,15.10
2018-04-10T18:54:27.723Z,15.30
2018-04-10T18:56:55.692Z,15.30
2018-04-10T18:59:22.682Z,15.30
2018-04-10T19:01:49.680Z,15.30
2018-04-10T19:04:16.743Z,15.30
2018-04-10T19:06:43.892Z,15.20
2018-04-10T19:09:10.868Z,15.20
2018-04-10T19:14:17.389Z,15.00
2018-04-10T19:19:11.479Z,15.00
2018-04-10T19:21:38.464Z,15.00
2018-04-10T19:24:05.494Z,14.90
2018-04-10T19:26:32.497Z,14.60
2018-04-10T19:28:59.615Z,14.70
2018-04-10T19:31:26.609Z,14.60
2018-04-10T19:33:53.629Z,14.70
2018-04-10T19:36:20.967Z,14.70
2018-04-10T19:38:48.030Z,14.60
2018-04-10T19:41:14.975Z,14.70
2018-04-10T19:43:42.140Z,14.60
2018-04-10T19:46:09.236Z,14.70
2018-04-10T19:48:36.215Z,14.80
2018-04-10T19:51:04.154Z,14.70
2018-04-10T19:53:32.417Z,14.60
2018-04-10T19:55:59.794Z,14.50
2018-04-10T19:58:26.706Z,14.40
2018-04-10T20:00:56.871Z,14.30
2018-04-10T20:03:23.737Z,14.30
2018-04-10T20:05:50.723Z,14.30
2018-04-10T20:08:17.733Z,14.40
2018-04-10T20:10:44.712Z,14.40
2018-04-10T20:13:11.694Z,14.50
2018-04-10T20:15:38.715Z,14.40
2018-04-10T20:18:05.684Z,14.40
2018-04-10T20:20:32.677Z,14.20
2018-04-10T20:22:59.698Z,14.20
2018-04-10T20:25:26.683Z,14.00
2018-04-10T20:27:53.660Z,13.90
2018-04-10T20:30:20.679Z,13.90
2018-04-10T20:32:47.665Z,13.80
2018-04-10T20:35:14.633Z,13.80
2018-04-10T20:40:20.100Z,13.40
2018-04-10T20:42:47.113Z,13.50
2018-04-10T20:45:14.169Z,13.40
2018-04-10T20:50:08.249Z,13.40
2018-04-10T20:55:16.054Z,13.30
2018-04-10T20:57:43.047Z,13.30
2018-04-10T21:00:10.016Z,13.30
2018-04-10T21:02:37.044Z,13.30
2018-04-10T21:05:04.105Z,13.30
2018-04-10T21:07:31.154Z,13.20
2018-04-10T21:09:58.250Z,13.30
2018-04-10T21:14:53.173Z,13.30
2018-04-10T21:17:20.216Z,13.40
2018-04-10T21:19:47.280Z,13.40
2018-04-10T21:22:14.323Z,13.50
2018-04-10T21:24:41.426Z,13.50
2018-04-10T21:32:32.639Z,13.40
2018-04-10T21:34:59.701Z,13.50
2018-04-10T21:37:26.725Z,13.60
2018-04-10T21:39:54.071Z,13.40
2018-04-10T21:42:21.107Z,13.30
2018-04-10T21:44:48.116Z,13.40
2018-04-10T21:49:42.655Z,13.40
2018-04-10T21:52:09.905Z,13.10
2018-04-10T21:54:36.932Z,13.20
2018-04-10T21:57:04.465Z,13.30
2018-04-10T22:02:01.017Z,13.40
2018-04-10T22:04:28.062Z,13.40
2018-04-10T22:06:55.066Z,13.30
2018-04-10T22:09:22.079Z,13.30
2018-04-10T22:11:49.126Z,13.20
2018-04-10T22:14:16.172Z,13.20
2018-04-10T22:16:43.201Z,13.10
2018-04-10T22:24:04.923Z,13.00
2018-04-10T22:26:31.995Z,12.90
2018-04-10T22:28:59.971Z,12.90
2018-04-10T22:31:26.985Z,12.80
2018-04-10T22:33:54.011Z,12.70
2018-04-10T22:36:21.034Z,12.70
2018-04-10T22:38:48.101Z,12.60
2018-04-10T22:41:15.090Z,12.70
2018-04-10T22:43:42.122Z,12.70
2018-04-10T22:46:09.133Z,12.70
2018-04-10T22:48:36.416Z,12.60
2018-04-10T22:51:03.438Z,12.60
2018-04-10T22:53:30.437Z,12.60
2018-04-10T22:58:36.914Z,13.20
2018-04-10T23:01:03.957Z,12.50
2018-04-10T23:03:31.382Z,12.50
2018-04-10T23:05:58.388Z,12.40
2018-04-10T23:08:25.469Z,12.50
2018-04-10T23:10:52.490Z,12.50
2018-04-10T23:13:19.827Z,12.40
2018-04-10T23:15:46.888Z,12.30
2018-04-10T23:18:15.841Z,12.40
2018-04-10T23:20:41.217Z,12.30
2018-04-10T23:23:08.274Z,12.30
2018-04-10T23:25:35.289Z,12.30
2018-04-10T23:28:03.249Z,12.30
2018-04-10T23:30:30.279Z,12.20
2018-04-10T23:32:57.297Z,12.30
2018-04-10T23:35:24.327Z,12.20
2018-04-10T23:37:51.393Z,12.30
2018-04-10T23:42:47.216Z,12.30
2018-04-10T23:47:42.196Z,12.30
2018-04-10T23:50:09.687Z,12.20
2018-04-10T23:52:36.746Z,12.10
2018-04-10T23:57:30.842Z,12.10
2018-04-10T23:59:57.907Z,12.20
